sensor_id;sensor_type;location;lat;lon;timestamp;P1;durP1;ratioP1;P2;durP2;ratioP2
22205;SDS011;11272;50.104;8.754;2023-04-07T00:01:43;27.90;;;13.10;;
22205;SDS011;11272;50.104;8.754;2023-04-07T00:04:08;25.93;;;13.17;;
22205;SDS011;11272;50.104;8.754;2023-04-07T00:06:34;29.23;;;13.83;;
22205;SDS011;11272;50.104;8.754;2023-04-07T00:09:00;30.37;;;14.60;;
22205;SDS011;11272;50.104;8.754;2023-04-07T00:11:25;29.17;;;14.83;;
22205;SDS011;11272;50.104;8.754;2023-04-07T00:13:51;29.77;;;14.60;;
22205;SDS011;11272;50.104;8.754;2023-04-07T00:16:17;29.63;;;15.73;;
22205;SDS011;11272;50.104;8.754;2023-04-07T00:18:42;28.83;;;14.97;;
22205;SDS011;11272;50.104;8.754;2023-04-07T00:21:08;28.30;;;13.70;;
22205;SDS011;11272;50.104;8.754;2023-04-07T00:23:33;28.50;;;14.23;;
22205;SDS011;11272;50.104;8.754;2023-04-07T00:25:59;31.93;;;16.87;;
22205;SDS011;11272;50.104;8.754;2023-04-07T00:28:25;29.77;;;13.43;;
22205;SDS011;11272;50.104;8.754;2023-04-07T00:30:50;32.77;;;17.73;;
22205;SDS011;11272;50.104;8.754;2023-04-07T00:33:16;28.47;;;14.73;;
22205;SDS011;11272;50.104;8.754;2023-04-07T00:35:41;32.77;;;16.67;;
22205;SDS011;11272;50.104;8.754;2023-04-07T00:38:07;30.77;;;15.70;;
22205;SDS011;11272;50.104;8.754;2023-04-07T00:40:32;32.20;;;15.80;;
22205;SDS011;11272;50.104;8.754;2023-04-07T00:42:58;34.20;;;16.67;;
22205;SDS011;11272;50.104;8.754;2023-04-07T00:45:24;27.67;;;14.37;;
22205;SDS011;11272;50.104;8.754;2023-04-07T00:47:49;31.20;;;14.47;;
22205;SDS011;11272;50.104;8.754;2023-04-07T00:50:15;29.73;;;15.57;;
22205;SDS011;11272;50.104;8.754;2023-04-07T00:52:41;32.30;;;15.50;;
22205;SDS011;11272;50.104;8.754;2023-04-07T00:55:07;31.50;;;15.07;;
22205;SDS011;11272;50.104;8.754;2023-04-07T00:57:33;36.33;;;15.20;;
22205;SDS011;11272;50.104;8.754;2023-04-07T00:59:59;30.20;;;13.93;;
22205;SDS011;11272;50.104;8.754;2023-04-07T01:02:27;35.43;;;15.77;;
22205;SDS011;11272;50.104;8.754;2023-04-07T01:05:06;31.40;;;14.80;;
22205;SDS011;11272;50.104;8.754;2023-04-07T01:10:27;33.10;;;14.43;;
22205;SDS011;11272;50.104;8.754;2023-04-07T01:18:51;31.93;;;14.23;;
22205;SDS011;11272;50.104;8.754;2023-04-07T01:21:20;27.00;;;13.00;;
22205;SDS011;11272;50.104;8.754;2023-04-07T01:26:33;30.87;;;14.77;;
22205;SDS011;11272;50.104;8.754;2023-04-07T01:31:29;29.70;;;14.07;;
22205;SDS011;11272;50.104;8.754;2023-04-07T01:33:56;32.73;;;15.17;;
22205;SDS011;11272;50.104;8.754;2023-04-07T01:36:26;33.23;;;15.63;;
22205;SDS011;11272;50.104;8.754;2023-04-07T01:38:56;31.83;;;14.70;;
22205;SDS011;11272;50.104;8.754;2023-04-07T01:41:23;30.43;;;15.70;;
22205;SDS011;11272;50.104;8.754;2023-04-07T01:43:50;29.53;;;14.87;;
22205;SDS011;11272;50.104;8.754;2023-04-07T01:46:17;35.03;;;15.27;;
22205;SDS011;11272;50.104;8.754;2023-04-07T01:48:44;29.90;;;15.23;;
22205;SDS011;11272;50.104;8.754;2023-04-07T01:51:11;31.00;;;14.20;;
22205;SDS011;11272;50.104;8.754;2023-04-07T01:53:41;28.47;;;13.50;;
22205;SDS011;11272;50.104;8.754;2023-04-07T01:56:08;30.50;;;13.90;;
22205;SDS011;11272;50.104;8.754;2023-04-07T01:58:35;29.30;;;13.97;;
22205;SDS011;11272;50.104;8.754;2023-04-07T02:01:04;30.33;;;13.97;;
22205;SDS011;11272;50.104;8.754;2023-04-07T02:03:35;29.23;;;14.53;;
22205;SDS011;11272;50.104;8.754;2023-04-07T02:06:11;33.73;;;14.60;;
22205;SDS011;11272;50.104;8.754;2023-04-07T02:08:44;31.20;;;14.10;;
22205;SDS011;11272;50.104;8.754;2023-04-07T02:11:13;27.87;;;14.20;;
22205;SDS011;11272;50.104;8.754;2023-04-07T02:13:43;31.87;;;14.13;;
22205;SDS011;11272;50.104;8.754;2023-04-07T02:16:12;28.97;;;13.77;;
22205;SDS011;11272;50.104;8.754;2023-04-07T02:18:39;29.40;;;14.37;;
22205;SDS011;11272;50.104;8.754;2023-04-07T02:21:07;30.43;;;14.27;;
22205;SDS011;11272;50.104;8.754;2023-04-07T02:23:35;28.27;;;14.33;;
22205;SDS011;11272;50.104;8.754;2023-04-07T02:26:01;27.23;;;13.83;;
22205;SDS011;11272;50.104;8.754;2023-04-07T02:28:27;27.67;;;14.10;;
22205;SDS011;11272;50.104;8.754;2023-04-07T02:30:52;34.20;;;14.53;;
22205;SDS011;11272;50.104;8.754;2023-04-07T02:33:18;36.13;;;12.93;;
22205;SDS011;11272;50.104;8.754;2023-04-07T02:35:44;30.33;;;13.10;;
22205;SDS011;11272;50.104;8.754;2023-04-07T02:38:09;34.03;;;14.23;;
22205;SDS011;11272;50.104;8.754;2023-04-07T02:40:35;32.23;;;13.57;;
22205;SDS011;11272;50.104;8.754;2023-04-07T02:43:01;33.03;;;14.87;;
22205;SDS011;11272;50.104;8.754;2023-04-07T02:45:26;30.33;;;14.07;;
22205;SDS011;11272;50.104;8.754;2023-04-07T02:47:52;27.73;;;12.63;;
22205;SDS011;11272;50.104;8.754;2023-04-07T02:50:18;24.80;;;13.27;;
22205;SDS011;11272;50.104;8.754;2023-04-07T02:52:43;29.50;;;12.83;;
22205;SDS011;11272;50.104;8.754;2023-04-07T02:55:13;28.90;;;13.23;;
22205;SDS011;11272;50.104;8.754;2023-04-07T02:57:39;34.40;;;14.23;;
22205;SDS011;11272;50.104;8.754;2023-04-07T03:00:09;26.17;;;13.47;;
22205;SDS011;11272;50.104;8.754;2023-04-07T03:03:01;30.83;;;13.30;;
22205;SDS011;11272;50.104;8.754;2023-04-07T03:05:31;25.43;;;11.73;;
22205;SDS011;11272;50.104;8.754;2023-04-07T03:07:58;31.27;;;13.60;;
22205;SDS011;11272;50.104;8.754;2023-04-07T03:10:24;33.27;;;14.40;;
22205;SDS011;11272;50.104;8.754;2023-04-07T03:12:50;33.10;;;14.63;;
22205;SDS011;11272;50.104;8.754;2023-04-07T03:15:16;29.67;;;13.57;;
22205;SDS011;11272;50.104;8.754;2023-04-07T03:17:45;34.87;;;14.73;;
22205;SDS011;11272;50.104;8.754;2023-04-07T03:20:10;35.87;;;15.40;;
22205;SDS011;11272;50.104;8.754;2023-04-07T03:22:36;36.43;;;15.37;;
22205;SDS011;11272;50.104;8.754;2023-04-07T03:25:05;36.37;;;15.43;;
22205;SDS011;11272;50.104;8.754;2023-04-07T03:27:31;34.57;;;15.60;;
22205;SDS011;11272;50.104;8.754;2023-04-07T03:29:57;37.83;;;15.60;;
22205;SDS011;11272;50.104;8.754;2023-04-07T03:32:25;35.90;;;16.23;;
22205;SDS011;11272;50.104;8.754;2023-04-07T03:34:50;37.93;;;16.00;;
22205;SDS011;11272;50.104;8.754;2023-04-07T03:37:16;35.70;;;14.27;;
22205;SDS011;11272;50.104;8.754;2023-04-07T03:39:42;42.40;;;15.07;;
22205;SDS011;11272;50.104;8.754;2023-04-07T03:42:21;34.60;;;15.30;;
22205;SDS011;11272;50.104;8.754;2023-04-07T03:44:50;38.20;;;14.87;;
22205;SDS011;11272;50.104;8.754;2023-04-07T03:47:16;41.13;;;15.60;;
22205;SDS011;11272;50.104;8.754;2023-04-07T03:49:47;40.20;;;15.53;;
22205;SDS011;11272;50.104;8.754;2023-04-07T03:52:12;37.27;;;15.37;;
22205;SDS011;11272;50.104;8.754;2023-04-07T03:54:39;40.40;;;15.53;;
22205;SDS011;11272;50.104;8.754;2023-04-07T03:57:05;40.20;;;15.43;;
22205;SDS011;11272;50.104;8.754;2023-04-07T03:59:35;35.03;;;15.67;;
22205;SDS011;11272;50.104;8.754;2023-04-07T04:02:03;34.87;;;14.30;;
22205;SDS011;11272;50.104;8.754;2023-04-07T04:04:29;33.27;;;15.40;;
22205;SDS011;11272;50.104;8.754;2023-04-07T04:06:54;38.93;;;14.77;;
22205;SDS011;11272;50.104;8.754;2023-04-07T04:09:40;29.90;;;13.30;;
22205;SDS011;11272;50.104;8.754;2023-04-07T04:12:06;34.97;;;14.13;;
22205;SDS011;11272;50.104;8.754;2023-04-07T04:14:36;33.80;;;14.57;;
22205;SDS011;11272;50.104;8.754;2023-04-07T04:17:02;34.33;;;14.60;;
22205;SDS011;11272;50.104;8.754;2023-04-07T04:19:42;36.50;;;14.77;;
22205;SDS011;11272;50.104;8.754;2023-04-07T04:22:22;34.70;;;15.33;;
22205;SDS011;11272;50.104;8.754;2023-04-07T04:24:51;35.93;;;15.37;;
22205;SDS011;11272;50.104;8.754;2023-04-07T04:27:17;36.10;;;15.23;;
22205;SDS011;11272;50.104;8.754;2023-04-07T04:29:46;37.67;;;13.80;;
22205;SDS011;11272;50.104;8.754;2023-04-07T04:32:15;41.37;;;14.53;;
22205;SDS011;11272;50.104;8.754;2023-04-07T04:34:42;40.73;;;14.63;;
22205;SDS011;11272;50.104;8.754;2023-04-07T04:37:10;39.53;;;15.13;;
22205;SDS011;11272;50.104;8.754;2023-04-07T04:39:40;33.53;;;14.03;;
22205;SDS011;11272;50.104;8.754;2023-04-07T04:42:09;38.53;;;15.17;;
22205;SDS011;11272;50.104;8.754;2023-04-07T04:44:35;36.03;;;15.03;;
22205;SDS011;11272;50.104;8.754;2023-04-07T04:47:02;35.70;;;14.63;;
22205;SDS011;11272;50.104;8.754;2023-04-07T04:49:29;29.63;;;14.00;;
22205;SDS011;11272;50.104;8.754;2023-04-07T04:51:58;36.60;;;14.17;;
22205;SDS011;11272;50.104;8.754;2023-04-07T04:54:24;37.60;;;15.30;;
22205;SDS011;11272;50.104;8.754;2023-04-07T04:56:50;36.27;;;15.27;;
22205;SDS011;11272;50.104;8.754;2023-04-07T04:59:15;33.37;;;14.77;;
22205;SDS011;11272;50.104;8.754;2023-04-07T05:01:51;33.27;;;14.47;;
22205;SDS011;11272;50.104;8.754;2023-04-07T05:04:18;34.50;;;14.60;;
22205;SDS011;11272;50.104;8.754;2023-04-07T05:06:53;35.47;;;14.93;;
22205;SDS011;11272;50.104;8.754;2023-04-07T05:09:23;38.23;;;14.80;;
22205;SDS011;11272;50.104;8.754;2023-04-07T05:11:49;38.37;;;15.27;;
22205;SDS011;11272;50.104;8.754;2023-04-07T05:14:15;39.03;;;15.70;;
22205;SDS011;11272;50.104;8.754;2023-04-07T05:16:47;37.87;;;15.77;;
22205;SDS011;11272;50.104;8.754;2023-04-07T05:19:17;38.90;;;15.77;;
22205;SDS011;11272;50.104;8.754;2023-04-07T05:21:44;41.73;;;15.53;;
22205;SDS011;11272;50.104;8.754;2023-04-07T05:24:10;36.53;;;15.13;;
22205;SDS011;11272;50.104;8.754;2023-04-07T05:26:36;36.43;;;15.10;;
22205;SDS011;11272;50.104;8.754;2023-04-07T05:29:05;35.33;;;15.30;;
22205;SDS011;11272;50.104;8.754;2023-04-07T05:31:30;34.57;;;15.20;;
22205;SDS011;11272;50.104;8.754;2023-04-07T05:33:58;45.77;;;17.17;;
22205;SDS011;11272;50.104;8.754;2023-04-07T05:36:27;36.03;;;14.30;;
22205;SDS011;11272;50.104;8.754;2023-04-07T05:38:55;36.60;;;15.57;;
22205;SDS011;11272;50.104;8.754;2023-04-07T05:41:21;38.00;;;15.80;;
22205;SDS011;11272;50.104;8.754;2023-04-07T05:43:46;38.63;;;15.80;;
22205;SDS011;11272;50.104;8.754;2023-04-07T05:46:14;36.63;;;15.40;;
22205;SDS011;11272;50.104;8.754;2023-04-07T05:48:49;39.87;;;16.03;;
22205;SDS011;11272;50.104;8.754;2023-04-07T05:51:15;37.83;;;15.80;;
22205;SDS011;11272;50.104;8.754;2023-04-07T05:53:42;41.53;;;16.27;;
22205;SDS011;11272;50.104;8.754;2023-04-07T05:56:07;36.30;;;15.27;;
22205;SDS011;11272;50.104;8.754;2023-04-07T05:58:42;36.20;;;15.20;;
22205;SDS011;11272;50.104;8.754;2023-04-07T06:01:08;34.80;;;14.30;;
22205;SDS011;11272;50.104;8.754;2023-04-07T06:03:35;35.90;;;15.17;;
22205;SDS011;11272;50.104;8.754;2023-04-07T06:06:14;36.10;;;14.90;;
22205;SDS011;11272;50.104;8.754;2023-04-07T06:08:40;32.53;;;13.43;;
22205;SDS011;11272;50.104;8.754;2023-04-07T06:11:06;36.43;;;15.33;;
22205;SDS011;11272;50.104;8.754;2023-04-07T06:13:32;39.90;;;15.57;;
22205;SDS011;11272;50.104;8.754;2023-04-07T06:15:59;32.97;;;13.70;;
22205;SDS011;11272;50.104;8.754;2023-04-07T06:18:27;26.60;;;10.70;;
22205;SDS011;11272;50.104;8.754;2023-04-07T06:20:52;36.93;;;15.13;;
22205;SDS011;11272;50.104;8.754;2023-04-07T06:23:18;40.83;;;15.37;;
22205;SDS011;11272;50.104;8.754;2023-04-07T06:25:43;39.13;;;15.80;;
22205;SDS011;11272;50.104;8.754;2023-04-07T06:28:09;35.97;;;14.43;;
22205;SDS011;11272;50.104;8.754;2023-04-07T06:30:35;35.37;;;14.90;;
22205;SDS011;11272;50.104;8.754;2023-04-07T06:33:06;36.20;;;13.93;;
22205;SDS011;11272;50.104;8.754;2023-04-07T06:35:32;29.73;;;12.33;;
22205;SDS011;11272;50.104;8.754;2023-04-07T06:37:57;34.20;;;14.13;;
22205;SDS011;11272;50.104;8.754;2023-04-07T06:40:23;35.53;;;14.90;;
22205;SDS011;11272;50.104;8.754;2023-04-07T06:42:48;40.73;;;15.07;;
22205;SDS011;11272;50.104;8.754;2023-04-07T06:45:25;40.03;;;15.17;;
22205;SDS011;11272;50.104;8.754;2023-04-07T06:47:51;42.00;;;15.27;;
22205;SDS011;11272;50.104;8.754;2023-04-07T06:50:17;39.73;;;16.17;;
22205;SDS011;11272;50.104;8.754;2023-04-07T06:52:45;35.67;;;15.10;;
22205;SDS011;11272;50.104;8.754;2023-04-07T06:55:10;33.67;;;14.20;;
22205;SDS011;11272;50.104;8.754;2023-04-07T06:57:39;37.23;;;14.97;;
22205;SDS011;11272;50.104;8.754;2023-04-07T07:00:05;36.77;;;15.10;;
22205;SDS011;11272;50.104;8.754;2023-04-07T07:02:32;32.30;;;14.43;;
22205;SDS011;11272;50.104;8.754;2023-04-07T07:04:58;37.97;;;16.13;;
22205;SDS011;11272;50.104;8.754;2023-04-07T07:07:24;37.13;;;14.57;;
22205;SDS011;11272;50.104;8.754;2023-04-07T07:09:52;33.10;;;14.53;;
22205;SDS011;11272;50.104;8.754;2023-04-07T07:12:18;38.80;;;15.73;;
22205;SDS011;11272;50.104;8.754;2023-04-07T07:14:44;42.20;;;16.60;;
22205;SDS011;11272;50.104;8.754;2023-04-07T07:17:10;40.00;;;16.53;;
22205;SDS011;11272;50.104;8.754;2023-04-07T07:19:35;41.20;;;16.37;;
22205;SDS011;11272;50.104;8.754;2023-04-07T07:22:01;32.60;;;13.87;;
22205;SDS011;11272;50.104;8.754;2023-04-07T07:24:28;39.80;;;15.67;;
22205;SDS011;11272;50.104;8.754;2023-04-07T07:26:55;38.97;;;15.13;;
22205;SDS011;11272;50.104;8.754;2023-04-07T07:32:15;33.80;;;15.17;;
22205;SDS011;11272;50.104;8.754;2023-04-07T07:34:41;41.70;;;15.77;;
22205;SDS011;11272;50.104;8.754;2023-04-07T07:37:06;40.77;;;15.70;;
22205;SDS011;11272;50.104;8.754;2023-04-07T07:39:32;37.87;;;15.93;;
22205;SDS011;11272;50.104;8.754;2023-04-07T07:44:53;39.90;;;15.23;;
22205;SDS011;11272;50.104;8.754;2023-04-07T07:50:08;30.93;;;14.30;;
22205;SDS011;11272;50.104;8.754;2023-04-07T07:52:34;34.40;;;15.47;;
22205;SDS011;11272;50.104;8.754;2023-04-07T07:54:59;31.80;;;14.13;;
22205;SDS011;11272;50.104;8.754;2023-04-07T07:57:25;32.27;;;15.77;;
22205;SDS011;11272;50.104;8.754;2023-04-07T08:19:34;33.80;;;14.83;;
22205;SDS011;11272;50.104;8.754;2023-04-07T08:45:28;25.47;;;13.87;;
22205;SDS011;11272;50.104;8.754;2023-04-07T08:56:37;28.27;;;14.13;;
22205;SDS011;11272;50.104;8.754;2023-04-07T09:02:07;26.43;;;14.70;;
22205;SDS011;11272;50.104;8.754;2023-04-07T09:04:33;32.97;;;15.70;;
22205;SDS011;11272;50.104;8.754;2023-04-07T09:06:59;32.37;;;15.63;;
22205;SDS011;11272;50.104;8.754;2023-04-07T09:17:52;26.23;;;14.50;;
22205;SDS011;11272;50.104;8.754;2023-04-07T09:20:20;27.40;;;14.80;;
22205;SDS011;11272;50.104;8.754;2023-04-07T09:42:28;26.77;;;14.40;;
22205;SDS011;11272;50.104;8.754;2023-04-07T09:48:04;24.00;;;14.27;;
22205;SDS011;11272;50.104;8.754;2023-04-07T09:50:31;22.70;;;13.37;;
22205;SDS011;11272;50.104;8.754;2023-04-07T09:52:59;22.97;;;14.10;;
22205;SDS011;11272;50.104;8.754;2023-04-07T09:55:26;22.70;;;12.73;;
22205;SDS011;11272;50.104;8.754;2023-04-07T09:57:53;21.67;;;13.03;;
22205;SDS011;11272;50.104;8.754;2023-04-07T10:00:20;22.03;;;13.37;;
22205;SDS011;11272;50.104;8.754;2023-04-07T10:02:46;21.73;;;13.80;;
22205;SDS011;11272;50.104;8.754;2023-04-07T10:05:12;21.70;;;13.37;;
22205;SDS011;11272;50.104;8.754;2023-04-07T10:07:38;21.57;;;13.27;;
22205;SDS011;11272;50.104;8.754;2023-04-07T10:10:04;26.03;;;13.30;;
22205;SDS011;11272;50.104;8.754;2023-04-07T10:12:36;20.10;;;12.90;;
22205;SDS011;11272;50.104;8.754;2023-04-07T10:15:02;23.80;;;12.90;;
22205;SDS011;11272;50.104;8.754;2023-04-07T10:17:30;21.20;;;12.70;;
22205;SDS011;11272;50.104;8.754;2023-04-07T10:19:58;18.73;;;12.07;;
22205;SDS011;11272;50.104;8.754;2023-04-07T10:25:21;19.73;;;12.50;;
22205;SDS011;11272;50.104;8.754;2023-04-07T10:27:50;21.80;;;12.87;;
22205;SDS011;11272;50.104;8.754;2023-04-07T10:33:01;23.77;;;13.77;;
22205;SDS011;11272;50.104;8.754;2023-04-07T10:55:28;25.60;;;15.00;;
22205;SDS011;11272;50.104;8.754;2023-04-07T11:04:03;20.60;;;12.93;;
22205;SDS011;11272;50.104;8.754;2023-04-07T11:06:30;22.90;;;14.33;;
22205;SDS011;11272;50.104;8.754;2023-04-07T11:08:56;22.43;;;13.67;;
22205;SDS011;11272;50.104;8.754;2023-04-07T11:22:36;23.57;;;14.40;;
22205;SDS011;11272;50.104;8.754;2023-04-07T11:25:01;22.90;;;13.43;;
22205;SDS011;11272;50.104;8.754;2023-04-07T11:27:28;27.40;;;14.60;;
22205;SDS011;11272;50.104;8.754;2023-04-07T11:29:55;27.30;;;13.43;;
22205;SDS011;11272;50.104;8.754;2023-04-07T11:35:09;22.00;;;13.03;;
22205;SDS011;11272;50.104;8.754;2023-04-07T11:42:59;24.60;;;14.00;;
22205;SDS011;11272;50.104;8.754;2023-04-07T11:54:13;21.10;;;12.67;;
22205;SDS011;11272;50.104;8.754;2023-04-07T11:56:45;22.67;;;12.97;;
22205;SDS011;11272;50.104;8.754;2023-04-07T12:14:21;18.93;;;11.43;;
22205;SDS011;11272;50.104;8.754;2023-04-07T12:16:46;18.90;;;11.13;;
22205;SDS011;11272;50.104;8.754;2023-04-07T12:22:07;20.07;;;11.20;;
22205;SDS011;11272;50.104;8.754;2023-04-07T12:24:33;17.97;;;11.17;;
22205;SDS011;11272;50.104;8.754;2023-04-07T12:26:59;20.03;;;12.20;;
22205;SDS011;11272;50.104;8.754;2023-04-07T12:32:14;18.93;;;10.93;;
22205;SDS011;11272;50.104;8.754;2023-04-07T12:37:35;18.70;;;11.90;;
22205;SDS011;11272;50.104;8.754;2023-04-07T12:40:01;19.70;;;10.80;;
22205;SDS011;11272;50.104;8.754;2023-04-07T12:42:27;21.00;;;11.90;;
22205;SDS011;11272;50.104;8.754;2023-04-07T12:47:45;16.67;;;10.70;;
22205;SDS011;11272;50.104;8.754;2023-04-07T12:50:11;19.63;;;11.10;;
22205;SDS011;11272;50.104;8.754;2023-04-07T12:52:37;19.90;;;10.93;;
22205;SDS011;11272;50.104;8.754;2023-04-07T12:55:03;19.03;;;11.13;;
22205;SDS011;11272;50.104;8.754;2023-04-07T12:57:29;20.33;;;11.10;;
22205;SDS011;11272;50.104;8.754;2023-04-07T12:59:56;19.97;;;11.40;;
22205;SDS011;11272;50.104;8.754;2023-04-07T13:02:22;17.10;;;10.33;;
22205;SDS011;11272;50.104;8.754;2023-04-07T13:04:48;21.00;;;10.90;;
22205;SDS011;11272;50.104;8.754;2023-04-07T13:07:14;19.90;;;11.87;;
22205;SDS011;11272;50.104;8.754;2023-04-07T13:09:40;21.33;;;11.83;;
22205;SDS011;11272;50.104;8.754;2023-04-07T13:17:54;22.23;;;12.57;;
22205;SDS011;11272;50.104;8.754;2023-04-07T13:20:20;17.43;;;10.83;;
22205;SDS011;11272;50.104;8.754;2023-04-07T13:22:46;19.33;;;11.43;;
22205;SDS011;11272;50.104;8.754;2023-04-07T13:25:12;19.17;;;11.47;;
22205;SDS011;11272;50.104;8.754;2023-04-07T13:52:56;10.07;;;6.73;;
22205;SDS011;11272;50.104;8.754;2023-04-07T14:04:09;8.87;;;6.03;;
22205;SDS011;11272;50.104;8.754;2023-04-07T14:06:35;10.93;;;6.50;;
22205;SDS011;11272;50.104;8.754;2023-04-07T14:09:02;9.60;;;5.80;;
22205;SDS011;11272;50.104;8.754;2023-04-07T14:11:28;7.20;;;4.90;;
22205;SDS011;11272;50.104;8.754;2023-04-07T14:13:54;6.27;;;5.20;;
22205;SDS011;11272;50.104;8.754;2023-04-07T14:21:51;6.03;;;4.60;;
22205;SDS011;11272;50.104;8.754;2023-04-07T14:24:16;7.03;;;4.60;;
22205;SDS011;11272;50.104;8.754;2023-04-07T14:26:42;5.33;;;3.90;;
22205;SDS011;11272;50.104;8.754;2023-04-07T14:29:09;5.50;;;3.90;;
22205;SDS011;11272;50.104;8.754;2023-04-07T14:31:38;7.00;;;4.60;;
22205;SDS011;11272;50.104;8.754;2023-04-07T14:34:04;5.43;;;3.77;;
22205;SDS011;11272;50.104;8.754;2023-04-07T14:36:31;5.83;;;4.20;;
22205;SDS011;11272;50.104;8.754;2023-04-07T14:38:57;6.10;;;4.10;;
22205;SDS011;11272;50.104;8.754;2023-04-07T14:41:23;8.03;;;3.93;;
22205;SDS011;11272;50.104;8.754;2023-04-07T14:43:49;5.70;;;3.87;;
22205;SDS011;11272;50.104;8.754;2023-04-07T14:46:20;5.03;;;3.77;;
22205;SDS011;11272;50.104;8.754;2023-04-07T14:48:49;5.43;;;3.80;;
22205;SDS011;11272;50.104;8.754;2023-04-07T14:51:16;5.43;;;3.50;;
22205;SDS011;11272;50.104;8.754;2023-04-07T14:53:42;5.10;;;3.50;;
22205;SDS011;11272;50.104;8.754;2023-04-07T14:56:10;4.30;;;3.43;;
22205;SDS011;11272;50.104;8.754;2023-04-07T14:58:36;2.73;;;1.97;;
22205;SDS011;11272;50.104;8.754;2023-04-07T15:01:06;1.90;;;1.60;;
22205;SDS011;11272;50.104;8.754;2023-04-07T15:03:32;2.27;;;1.97;;
22205;SDS011;11272;50.104;8.754;2023-04-07T15:05:59;2.90;;;2.03;;
22205;SDS011;11272;50.104;8.754;2023-04-07T15:08:24;2.97;;;2.13;;
22205;SDS011;11272;50.104;8.754;2023-04-07T15:10:50;2.50;;;2.10;;
22205;SDS011;11272;50.104;8.754;2023-04-07T15:13:15;1.93;;;1.80;;
22205;SDS011;11272;50.104;8.754;2023-04-07T15:15:41;3.30;;;2.40;;
22205;SDS011;11272;50.104;8.754;2023-04-07T15:18:06;4.13;;;2.00;;
22205;SDS011;11272;50.104;8.754;2023-04-07T15:20:32;1.87;;;1.70;;
22205;SDS011;11272;50.104;8.754;2023-04-07T15:22:57;2.50;;;2.13;;
22205;SDS011;11272;50.104;8.754;2023-04-07T15:25:25;2.50;;;2.00;;
22205;SDS011;11272;50.104;8.754;2023-04-07T15:27:51;3.07;;;2.30;;
22205;SDS011;11272;50.104;8.754;2023-04-07T15:30:17;1.63;;;1.30;;
22205;SDS011;11272;50.104;8.754;2023-04-07T15:32:58;2.50;;;1.87;;
22205;SDS011;11272;50.104;8.754;2023-04-07T15:35:26;1.60;;;1.50;;
22205;SDS011;11272;50.104;8.754;2023-04-07T15:37:52;1.30;;;1.20;;
22205;SDS011;11272;50.104;8.754;2023-04-07T15:40:17;2.40;;;1.60;;
22205;SDS011;11272;50.104;8.754;2023-04-07T15:42:43;1.90;;;1.60;;
22205;SDS011;11272;50.104;8.754;2023-04-07T15:45:09;1.43;;;1.00;;
22205;SDS011;11272;50.104;8.754;2023-04-07T15:47:35;1.67;;;1.20;;
22205;SDS011;11272;50.104;8.754;2023-04-07T15:50:00;2.53;;;1.30;;
22205;SDS011;11272;50.104;8.754;2023-04-07T15:52:26;2.00;;;1.80;;
22205;SDS011;11272;50.104;8.754;2023-04-07T15:54:52;2.83;;;2.20;;
22205;SDS011;11272;50.104;8.754;2023-04-07T15:57:17;2.50;;;2.30;;
22205;SDS011;11272;50.104;8.754;2023-04-07T15:59:45;2.53;;;2.30;;
22205;SDS011;11272;50.104;8.754;2023-04-07T16:02:11;3.13;;;2.47;;
22205;SDS011;11272;50.104;8.754;2023-04-07T16:04:36;3.97;;;2.80;;
22205;SDS011;11272;50.104;8.754;2023-04-07T16:07:02;3.30;;;3.00;;
22205;SDS011;11272;50.104;8.754;2023-04-07T16:09:28;4.30;;;3.10;;
22205;SDS011;11272;50.104;8.754;2023-04-07T16:11:54;4.23;;;3.00;;
22205;SDS011;11272;50.104;8.754;2023-04-07T16:14:20;5.73;;;3.20;;
22205;SDS011;11272;50.104;8.754;2023-04-07T16:16:46;3.80;;;3.20;;
22205;SDS011;11272;50.104;8.754;2023-04-07T16:19:11;3.63;;;3.10;;
22205;SDS011;11272;50.104;8.754;2023-04-07T16:21:38;3.27;;;2.97;;
22205;SDS011;11272;50.104;8.754;2023-04-07T16:24:04;4.13;;;3.00;;
22205;SDS011;11272;50.104;8.754;2023-04-07T16:26:30;4.57;;;3.10;;
22205;SDS011;11272;50.104;8.754;2023-04-07T16:28:56;5.70;;;3.20;;
22205;SDS011;11272;50.104;8.754;2023-04-07T16:31:21;4.00;;;3.20;;
22205;SDS011;11272;50.104;8.754;2023-04-07T16:33:48;6.33;;;2.47;;
22205;SDS011;11272;50.104;8.754;2023-04-07T16:36:14;3.03;;;2.30;;
22205;SDS011;11272;50.104;8.754;2023-04-07T16:38:40;4.90;;;2.90;;
22205;SDS011;11272;50.104;8.754;2023-04-07T16:41:06;3.10;;;2.33;;
22205;SDS011;11272;50.104;8.754;2023-04-07T16:43:32;2.53;;;1.80;;
22205;SDS011;11272;50.104;8.754;2023-04-07T16:45:58;2.97;;;2.03;;
22205;SDS011;11272;50.104;8.754;2023-04-07T16:48:24;2.00;;;1.70;;
22205;SDS011;11272;50.104;8.754;2023-04-07T16:50:50;2.90;;;2.13;;
22205;SDS011;11272;50.104;8.754;2023-04-07T16:53:15;2.60;;;1.90;;
22205;SDS011;11272;50.104;8.754;2023-04-07T16:55:42;3.03;;;1.97;;
22205;SDS011;11272;50.104;8.754;2023-04-07T16:58:08;3.03;;;2.53;;
22205;SDS011;11272;50.104;8.754;2023-04-07T17:00:34;2.60;;;1.83;;
22205;SDS011;11272;50.104;8.754;2023-04-07T17:03:00;2.17;;;1.97;;
22205;SDS011;11272;50.104;8.754;2023-04-07T17:05:25;3.10;;;2.00;;
22205;SDS011;11272;50.104;8.754;2023-04-07T17:07:51;2.43;;;2.10;;
22205;SDS011;11272;50.104;8.754;2023-04-07T17:10:16;2.67;;;2.20;;
22205;SDS011;11272;50.104;8.754;2023-04-07T17:12:42;3.70;;;2.27;;
22205;SDS011;11272;50.104;8.754;2023-04-07T17:15:08;4.67;;;2.00;;
22205;SDS011;11272;50.104;8.754;2023-04-07T17:17:33;4.23;;;2.10;;
22205;SDS011;11272;50.104;8.754;2023-04-07T17:19:59;4.23;;;2.60;;
22205;SDS011;11272;50.104;8.754;2023-04-07T17:22:24;3.60;;;2.07;;
22205;SDS011;11272;50.104;8.754;2023-04-07T17:24:50;10.03;;;3.10;;
22205;SDS011;11272;50.104;8.754;2023-04-07T17:27:16;5.77;;;3.20;;
22205;SDS011;11272;50.104;8.754;2023-04-07T17:29:42;3.43;;;2.43;;
22205;SDS011;11272;50.104;8.754;2023-04-07T17:32:08;3.07;;;2.37;;
22205;SDS011;11272;50.104;8.754;2023-04-07T17:34:34;5.20;;;3.20;;
22205;SDS011;11272;50.104;8.754;2023-04-07T17:36:59;5.07;;;3.10;;
22205;SDS011;11272;50.104;8.754;2023-04-07T17:39:26;4.40;;;3.10;;
22205;SDS011;11272;50.104;8.754;2023-04-07T17:41:55;5.33;;;3.13;;
22205;SDS011;11272;50.104;8.754;2023-04-07T17:44:20;3.23;;;2.47;;
22205;SDS011;11272;50.104;8.754;2023-04-07T17:46:46;4.50;;;2.90;;
22205;SDS011;11272;50.104;8.754;2023-04-07T17:49:12;4.00;;;3.00;;
22205;SDS011;11272;50.104;8.754;2023-04-07T17:51:38;4.13;;;2.60;;
22205;SDS011;11272;50.104;8.754;2023-04-07T17:54:04;3.23;;;2.60;;
22205;SDS011;11272;50.104;8.754;2023-04-07T17:56:30;4.37;;;2.97;;
22205;SDS011;11272;50.104;8.754;2023-04-07T17:58:55;4.87;;;3.77;;
22205;SDS011;11272;50.104;8.754;2023-04-07T18:01:21;3.23;;;2.93;;
22205;SDS011;11272;50.104;8.754;2023-04-07T18:03:48;8.07;;;4.63;;
22205;SDS011;11272;50.104;8.754;2023-04-07T18:06:16;8.63;;;4.83;;
22205;SDS011;11272;50.104;8.754;2023-04-07T18:08:44;7.17;;;4.40;;
22205;SDS011;11272;50.104;8.754;2023-04-07T18:11:13;6.17;;;3.53;;
22205;SDS011;11272;50.104;8.754;2023-04-07T18:13:39;3.90;;;2.87;;
22205;SDS011;11272;50.104;8.754;2023-04-07T20:01:13;4.87;;;3.73;;
22205;SDS011;11272;50.104;8.754;2023-04-07T20:03:40;5.00;;;3.40;;
22205;SDS011;11272;50.104;8.754;2023-04-07T20:06:07;4.53;;;3.50;;
22205;SDS011;11272;50.104;8.754;2023-04-07T20:08:34;4.33;;;3.50;;
22205;SDS011;11272;50.104;8.754;2023-04-07T20:11:02;4.33;;;3.20;;
22205;SDS011;11272;50.104;8.754;2023-04-07T20:13:28;4.67;;;3.40;;